Time;durP1;ratioP1;P1;durP2;ratioP2;P2;SDS_P1;SDS_P2;PMS_P1;PMS_P2;Temp;Humidity;BMP_temperature;BMP_pressure;BME280_temperature;BME280_humidity;BME280_pressure;Samples;Min_cycle;Max_cycle;Signal;HPM_P1;HPM_P2
2022/03/31 00:00:59;;;;;;;30.20;19.50;;;;;;;14.85;38.65;99383.58;117348;1186;22024;-49
2022/03/31 00:03:29;;;;;;;26.50;17.60;;;;;;;14.90;38.60;99383.02;117334;1186;23548;-49
2022/03/31 00:05:57;;;;;;;28.80;18.30;;;;;;;14.92;38.47;99387.84;117337;1186;21862;-49
2022/03/31 00:08:26;;;;;;;23.50;17.70;;;;;;;14.91;38.37;99390.37;117368;1185;21840;-51
2022/03/31 00:11:00;;;;;;;23.10;17.50;;;;;;;14.89;38.28;99388.17;117079;1186;24148;-59
2022/03/31 00:13:30;;;;;;;28.40;17.90;;;;;;;14.83;38.18;99381.55;117190;1186;21840;-51
2022/03/31 00:15:59;;;;;;;24.70;18.30;;;;;;;14.77;38.17;99386.96;117360;1186;22154;-59
2022/03/31 00:18:29;;;;;;;24.00;18.30;;;;;;;14.70;38.22;99388.67;117304;1185;21853;-59
2022/03/31 00:20:58;;;;;;;25.60;18.10;;;;;;;14.63;38.14;99392.46;117346;1183;22329;-59
2022/03/31 00:23:27;;;;;;;33.40;18.20;;;;;;;14.56;38.12;99394.17;117320;1185;22926;-59
2022/03/31 00:25:56;;;;;;;26.40;18.50;;;;;;;14.49;38.17;99389.59;117212;1181;21850;-59
2022/03/31 00:28:26;;;;;;;25.90;18.40;;;;;;;14.41;38.24;99392.38;117344;1186;22713;-59
2022/03/31 00:30:55;;;;;;;27.30;18.40;;;;;;;14.35;38.22;99386.11;117287;1186;22092;-59
2022/03/31 00:33:23;;;;;;;26.20;18.50;;;;;;;14.29;38.35;99381.95;117298;1185;24224;-49
2022/03/31 00:35:53;;;;;;;27.10;18.10;;;;;;;14.25;38.34;99374.36;117334;1186;24158;-59
2022/03/31 00:38:21;;;;;;;24.90;17.40;;;;;;;14.22;38.36;99375.55;117254;1188;22009;-58
2022/03/31 00:40:51;;;;;;;25.80;18.60;;;;;;;14.21;38.32;99367.14;117211;1186;23476;-59
2022/03/31 00:43:19;;;;;;;28.40;17.80;;;;;;;14.20;38.35;99360.27;117327;1185;21853;-59
2022/03/31 00:45:50;;;;;;;26.40;18.00;;;;;;;14.20;38.21;99374.23;117364;1188;23472;-49
2022/03/31 00:48:19;;;;;;;33.30;18.20;;;;;;;14.17;38.41;99372.58;117464;1186;23456;-49
2022/03/31 00:50:49;;;;;;;25.10;18.30;;;;;;;14.16;38.33;99363.63;117321;1186;23453;-59
2022/03/31 00:53:18;;;;;;;25.80;17.60;;;;;;;14.16;38.39;99359.94;117326;1185;21840;-59
2022/03/31 00:56:00;;;;;;;24.40;18.30;;;;;;;14.17;38.41;99354.61;117364;1186;23448;-49
2022/03/31 00:58:29;;;;;;;26.90;19.60;;;;;;;14.18;38.48;99355.08;117082;1189;21857;-49
2022/03/31 01:00:58;;;;;;;25.40;17.50;;;;;;;14.21;38.63;99356.54;117234;1186;22752;-59
2022/03/31 01:03:28;;;;;;;26.00;18.50;;;;;;;14.24;38.70;99355.17;117351;1185;23477;-49
2022/03/31 01:05:59;;;;;;;25.00;17.80;;;;;;;14.26;38.58;99356.49;117337;1186;21840;-60
2022/03/31 01:08:30;;;;;;;27.80;17.80;;;;;;;14.27;38.54;99345.52;117260;1186;21858;-60
2022/03/31 01:10:58;;;;;;;24.50;17.90;;;;;;;14.25;38.57;99346.47;117261;1186;22628;-59
2022/03/31 01:13:28;;;;;;;25.40;18.30;;;;;;;14.23;38.49;99344.79;117279;1185;22099;-59
2022/03/31 01:15:56;;;;;;;30.30;18.00;;;;;;;14.19;38.61;99347.27;117318;1185;23513;-49
2022/03/31 01:18:26;;;;;;;27.10;18.50;;;;;;;14.13;38.56;99346.29;117295;1186;23461;-59
2022/03/31 01:20:55;;;;;;;33.10;20.20;;;;;;;14.07;38.54;99345.31;117351;1185;24144;-59
2022/03/31 01:23:24;;;;;;;29.80;19.00;;;;;;;14.00;38.55;99340.14;117339;1185;22993;-49
2022/03/31 01:25:52;;;;;;;31.50;18.20;;;;;;;13.95;38.56;99341.59;117215;1186;23448;-58
2022/03/31 01:28:20;;;;;;;28.30;18.00;;;;;;;13.91;38.58;99343.73;117388;1185;23448;-59
2022/03/31 01:30:50;;;;;;;29.80;19.10;;;;;;;13.87;38.79;99338.94;117291;1186;23471;-59
2022/03/31 01:33:19;;;;;;;28.10;19.10;;;;;;;13.86;38.92;99338.46;117323;1184;24165;-48
2022/03/31 01:35:47;;;;;;;29.20;18.50;;;;;;;13.85;38.85;99339.39;117377;1185;23260;-48
2022/03/31 01:38:18;;;;;;;25.40;18.50;;;;;;;13.86;38.85;99332.98;117372;1186;24168;-59
2022/03/31 01:40:46;;;;;;;27.30;17.90;;;;;;;13.88;38.83;99330.99;117331;1185;22908;-51
2022/03/31 01:43:15;;;;;;;30.40;18.60;;;;;;;13.89;38.93;99332.36;117365;1186;21845;-48
2022/03/31 01:45:44;;;;;;;29.60;18.60;;;;;;;13.88;38.91;99326.04;117355;1185;23452;-59
2022/03/31 01:48:13;;;;;;;27.80;19.20;;;;;;;13.86;38.95;99331.04;117329;1185;23442;-49
2022/03/31 01:50:46;;;;;;;26.40;18.20;;;;;;;13.85;38.89;99330.21;117379;1186;23480;-48
2022/03/31 01:53:19;;;;;;;27.50;20.30;;;;;;;13.82;38.80;99329.42;117356;1186;21855;-49
2022/03/31 01:55:47;;;;;;;29.10;20.90;;;;;;;13.77;38.99;99335.83;117322;1186;23472;-49
2022/03/31 01:58:16;;;;;;;27.00;19.80;;;;;;;13.71;38.99;99335.55;117348;1186;23481;-59
2022/03/31 02:00:50;;;;;;;30.90;19.50;;;;;;;13.65;38.95;99326.98;117308;1185;23256;-49
2022/03/31 02:03:19;;;;;;;29.30;19.60;;;;;;;13.60;39.05;99333.55;117336;1184;22905;-58
2022/03/31 02:05:48;;;;;;;26.00;19.00;;;;;;;13.52;38.93;99330.50;117361;1186;23483;-48
2022/03/31 02:08:17;;;;;;;27.50;19.00;;;;;;;13.45;39.15;99342.95;117559;1185;21834;-59
2022/03/31 02:10:48;;;;;;;25.20;18.90;;;;;;;13.37;39.23;99339.20;117342;1184;23547;-49
2022/03/31 02:13:16;;;;;;;24.50;19.40;;;;;;;13.32;39.10;99335.69;117360;1185;21851;-49
2022/03/31 02:15:54;;;;;;;25.30;18.80;;;;;;;13.30;39.24;99336.85;117271;1186;23472;-60
2022/03/31 02:18:24;;;;;;;28.30;19.60;;;;;;;13.27;39.39;99336.27;117331;1185;22921;-49
2022/03/31 02:20:54;;;;;;;27.60;19.70;;;;;;;13.24;39.27;99336.20;117327;1185;22313;-58
2022/03/31 02:23:22;;;;;;;29.80;19.80;;;;;;;13.19;39.44;99333.94;117349;1185;23458;-48
2022/03/31 02:25:52;;;;;;;30.60;20.00;;;;;;;13.14;39.30;99329.17;117331;1184;23445;-58
2022/03/31 02:28:21;;;;;;;30.10;19.60;;;;;;;13.11;39.31;99331.78;117537;1185;23446;-49
2022/03/31 02:30:50;;;;;;;28.30;19.00;;;;;;;13.09;39.29;99328.48;117323;1185;23472;-48
2022/03/31 02:33:18;;;;;;;30.40;19.90;;;;;;;13.07;39.43;99324.68;117366;1185;23661;-49
2022/03/31 02:35:47;;;;;;;31.40;19.20;;;;;;;13.04;39.69;99319.74;117371;1186;23542;-58
2022/03/31 02:38:15;;;;;;;27.60;19.60;;;;;;;13.01;39.43;99318.59;117329;1184;24719;-58
2022/03/31 02:40:44;;;;;;;33.20;20.40;;;;;;;13.00;39.64;99321.83;117308;1184;24162;-60
2022/03/31 02:43:21;;;;;;;34.10;20.50;;;;;;;13.00;39.72;99327.29;117289;1185;21917;-50
2022/03/31 02:45:50;;;;;;;29.00;19.50;;;;;;;12.99;39.60;99325.36;117386;1186;23469;-60
2022/03/31 02:48:18;;;;;;;25.90;18.60;;;;;;;12.98;39.86;99318.73;117344;1186;21857;-51
2022/03/31 02:50:47;;;;;;;28.90;20.60;;;;;;;12.98;39.76;99317.67;117326;1185;23445;-50
2022/03/31 02:56:05;;;;;;;30.50;20.60;;;;;;;12.97;39.99;99311.92;117343;1185;24155;-50
2022/03/31 02:58:34;;;;;;;29.80;20.60;;;;;;;12.95;40.00;99318.31;117326;1184;23666;-47
2022/03/31 03:01:02;;;;;;;28.20;20.10;;;;;;;12.94;40.11;99321.17;117329;1185;21899;-48
2022/03/31 03:03:32;;;;;;;28.70;20.60;;;;;;;12.93;40.20;99326.46;117316;1185;24145;-48
2022/03/31 03:06:02;;;;;;;25.90;20.60;;;;;;;12.93;40.63;99329.65;117316;1186;22996;-58
2022/03/31 03:08:32;;;;;;;35.40;21.80;;;;;;;12.92;40.44;99321.56;117381;1186;21945;-58
2022/03/31 03:11:00;;;;;;;34.00;22.00;;;;;;;12.93;40.50;99323.31;117362;1185;21921;-58
2022/03/31 03:13:32;;;;;;;31.60;21.80;;;;;;;12.94;40.40;99321.52;117314;1181;21849;-58
2022/03/31 03:16:07;;;;;;;30.40;22.00;;;;;;;12.94;40.28;99323.79;117313;1185;21868;-48
2022/03/31 03:18:37;;;;;;;36.10;24.20;;;;;;;12.92;40.51;99321.23;117338;1184;21852;-58
2022/03/31 03:21:07;;;;;;;31.30;25.30;;;;;;;12.90;40.32;99325.90;117265;1186;23445;-48
2022/03/31 03:23:36;;;;;;;37.60;27.50;;;;;;;12.88;40.32;99332.12;118467;1185;21849;-58
2022/03/31 03:26:05;;;;;;;39.20;31.80;;;;;;;12.86;40.55;99337.46;117839;1185;22611;-58
2022/03/31 03:28:37;;;;;;;36.70;30.90;;;;;;;12.84;40.36;99339.87;117330;1186;22640;-59
2022/03/31 03:31:06;;;;;;;39.30;35.10;;;;;;;12.83;40.44;99342.38;117293;1185;23454;-48
2022/03/31 03:33:36;;;;;;;43.40;38.40;;;;;;;12.82;40.43;99347.35;117319;1185;21864;-48
2022/03/31 03:36:06;;;;;;;49.90;42.30;;;;;;;12.80;40.65;99353.06;117335;1186;23442;-52
2022/03/31 03:38:34;;;;;;;49.80;44.30;;;;;;;12.77;40.44;99352.44;117362;1185;23475;-58
2022/03/31 03:41:03;;;;;;;49.80;44.60;;;;;;;12.74;40.51;99359.05;117374;1186;22611;-59
2022/03/31 03:43:32;;;;;;;51.20;46.00;;;;;;;12.72;40.48;99357.02;117343;1185;23438;-48
2022/03/31 03:46:01;;;;;;;53.10;47.20;;;;;;;12.69;40.54;99355.41;117336;1186;22814;-59
2022/03/31 03:48:31;;;;;;;49.40;44.20;;;;;;;12.64;40.61;99349.39;117320;1185;23458;-48
2022/03/31 03:50:59;;;;;;;44.50;39.30;;;;;;;12.60;40.51;99349.55;117365;1186;23457;-47
2022/03/31 03:53:28;;;;;;;46.60;41.50;;;;;;;12.51;40.54;99362.02;117345;1185;23442;-47
2022/03/31 03:55:57;;;;;;;46.10;40.70;;;;;;;12.42;40.70;99360.07;117348;1186;23563;-63
2022/03/31 03:58:26;;;;;;;45.80;36.10;;;;;;;12.33;40.81;99361.08;117336;1185;23582;-61
2022/03/31 04:00:56;;;;;;;;;;;;;;;12.28;40.73;99368.84;117427;1185;22951;-50
2022/03/31 04:03:26;;;;;;;37.70;31.60;;;;;;;12.21;40.75;99378.20;117411;1185;21836;-60
2022/03/31 04:05:55;;;;;;;34.50;30.80;;;;;;;12.14;40.70;99374.06;117332;1185;21831;-62
2022/03/31 04:08:25;;;;;;;33.90;30.20;;;;;;;12.09;40.73;99379.51;117293;1185;21960;-49
2022/03/31 04:11:13;;;;;;;35.80;27.50;;;;;;;12.06;41.24;99381.55;117480;1184;21960;-49
2022/03/31 04:13:42;;;;;;;29.70;22.50;;;;;;;12.03;41.01;99374.25;117357;1186;23497;-59
2022/03/31 04:16:11;;;;;;;32.20;19.90;;;;;;;12.02;41.06;99378.86;117408;1185;23471;-59
2022/03/31 04:18:40;;;;;;;25.50;16.50;;;;;;;12.00;41.16;99383.33;117358;1185;22001;-60
2022/03/31 04:21:10;;;;;;;26.80;16.40;;;;;;;11.98;41.20;99382.66;117335;1185;22066;-49
2022/03/31 04:23:39;;;;;;;28.70;16.20;;;;;;;11.94;41.13;99376.09;117315;1185;23548;-49
2022/03/31 04:26:08;;;;;;;28.60;17.10;;;;;;;11.92;41.21;99379.19;117334;1186;23477;-49
2022/03/31 04:28:38;;;;;;;25.40;15.50;;;;;;;11.90;41.36;99385.20;117285;1185;23928;-49
2022/03/31 04:31:07;;;;;;;28.80;17.20;;;;;;;11.92;41.59;99388.49;117394;1185;24145;-61
2022/03/31 04:33:35;;;;;;;23.30;14.40;;;;;;;11.95;41.51;99390.84;117348;1185;23482;-59
2022/03/31 04:36:04;;;;;;;25.00;16.50;;;;;;;11.99;41.52;99388.08;117331;1184;23645;-60
2022/03/31 04:38:34;;;;;;;26.50;17.60;;;;;;;12.03;41.59;99393.58;117387;1185;23471;-59
2022/03/31 04:41:02;;;;;;;31.80;18.60;;;;;;;12.09;41.84;99385.84;117304;1186;23497;-58
2022/03/31 04:43:31;;;;;;;28.80;19.50;;;;;;;12.12;41.82;99389.44;117340;1184;23445;-48
2022/03/31 04:45:59;;;;;;;25.80;17.80;;;;;;;12.14;41.89;99379.51;117333;1185;22934;-59
2022/03/31 04:48:30;;;;;;;26.90;17.50;;;;;;;12.17;41.92;99377.62;117433;1186;21851;-48
2022/03/31 04:50:59;;;;;;;28.70;18.70;;;;;;;12.19;41.72;99380.20;117580;1185;22639;-49
2022/03/31 04:53:27;;;;;;;28.50;18.80;;;;;;;12.21;41.98;99379.10;117405;1186;24153;-49
2022/03/31 04:55:56;;;;;;;29.90;22.00;;;;;;;12.21;42.15;99375.58;117512;1186;21849;-50
2022/03/31 04:58:25;;;;;;;29.30;23.10;;;;;;;12.23;41.89;99378.67;117504;1185;22649;-59
2022/03/31 05:00:54;;;;;;;37.90;26.70;;;;;;;12.26;42.22;99378.03;117502;1185;21846;-49
2022/03/31 05:03:23;;;;;;;33.10;23.60;;;;;;;12.30;42.24;99377.17;117436;1186;23482;-49
2022/03/31 05:05:51;;;;;;;30.20;21.40;;;;;;;12.38;42.30;99380.95;117443;1185;23469;-59
2022/03/31 05:08:20;;;;;;;32.90;22.40;;;;;;;12.47;42.28;99380.64;117486;1184;23478;-58
2022/03/31 05:10:49;;;;;;;27.80;18.80;;;;;;;12.56;42.46;99373.63;117507;1183;23468;-49
2022/03/31 05:13:18;;;;;;;31.80;21.00;;;;;;;12.64;42.70;99374.04;117524;1184;24145;-49
2022/03/31 05:15:47;;;;;;;32.90;20.40;;;;;;;12.74;43.11;99374.91;117472;1183;22827;-59
2022/03/31 05:18:16;;;;;;;31.40;20.80;;;;;;;12.84;42.92;99376.48;117502;1180;21849;-50
2022/03/31 05:20:46;;;;;;;34.90;20.20;;;;;;;12.94;42.92;99371.86;117522;1183;21884;-49
2022/03/31 05:23:15;;;;;;;;;;;;;;;13.06;42.86;99372.15;117478;1186;23452;-59
2022/03/31 05:25:44;;;;;;;32.00;20.10;;;;;;;13.18;42.95;99367.78;117458;1186;23548;-48
2022/03/31 05:28:13;;;;;;;27.10;20.40;;;;;;;13.29;42.94;99362.78;117441;1185;22360;-59
2022/03/31 05:30:42;;;;;;;31.90;23.30;;;;;;;13.40;42.98;99359.20;117428;1185;21851;-49
2022/03/31 05:33:11;;;;;;;28.20;21.70;;;;;;;13.50;42.88;99357.58;118188;1183;21881;-60
2022/03/31 05:35:40;;;;;;;36.80;23.30;;;;;;;13.60;43.49;99351.87;118368;1184;22932;-49
2022/03/31 05:38:09;;;;;;;36.60;22.60;;;;;;;13.72;43.65;99345.73;117453;1184;21849;-60
2022/03/31 05:40:38;;;;;;;33.90;22.60;;;;;;;13.84;43.45;99351.41;117533;1186;23569;-60
2022/03/31 05:43:07;;;;;;;34.20;21.60;;;;;;;13.93;43.31;99345.05;117405;1184;21844;-50
2022/03/31 05:45:41;;;;;;;31.90;23.30;;;;;;;13.98;43.23;99342.53;117457;1184;23446;-49
2022/03/31 05:48:10;;;;;;;35.50;24.00;;;;;;;14.03;43.12;99339.52;117490;1185;23531;-50
2022/03/31 05:50:39;;;;;;;28.10;21.40;;;;;;;14.07;43.13;99341.07;117529;1184;23679;-60
2022/03/31 05:53:08;;;;;;;31.40;24.50;;;;;;;14.11;43.22;99337.73;117411;1184;23750;-60
2022/03/31 05:55:37;;;;;;;60.10;27.30;;;;;;;14.19;43.22;99337.23;117437;1183;23545;-59
2022/03/31 05:58:06;;;;;;;35.90;24.30;;;;;;;14.30;43.41;99339.23;117353;1185;22924;-59
2022/03/31 06:00:34;;;;;;;34.50;22.50;;;;;;;14.43;43.26;99332.79;117326;1185;22106;-51
2022/03/31 06:03:06;;;;;;;33.10;22.20;;;;;;;14.60;43.39;99336.81;117522;1185;22633;-60
2022/03/31 06:05:35;;;;;;;31.40;19.50;;;;;;;14.73;43.09;99342.10;117400;1186;21991;-59
2022/03/31 06:08:04;;;;;;;28.60;18.10;;;;;;;14.84;43.28;99340.17;117421;1186;22095;-59
2022/03/31 06:10:33;;;;;;;30.40;16.80;;;;;;;14.95;43.43;99336.48;117455;1185;22931;-50
2022/03/31 06:13:02;;;;;;;24.00;17.00;;;;;;;15.07;43.32;99332.19;117481;1184;21855;-59
2022/03/31 06:15:34;;;;;;;27.40;17.10;;;;;;;15.21;43.36;99333.64;117477;1185;22608;-59
2022/03/31 06:18:04;;;;;;;27.80;19.10;;;;;;;15.39;43.43;99335.66;117492;1185;23598;-59
2022/03/31 06:20:34;;;;;;;24.90;17.30;;;;;;;15.54;43.52;99333.14;117483;1185;23246;-59
2022/03/31 06:23:02;;;;;;;35.50;20.90;;;;;;;15.66;43.29;99333.26;118363;1184;21956;-59
2022/03/31 06:25:31;;;;;;;48.70;27.60;;;;;;;15.76;43.23;99330.98;117549;1184;24165;-50
2022/03/31 06:28:00;;;;;;;26.00;15.70;;;;;;;15.88;43.21;99329.70;117438;1184;24238;-57
2022/03/31 06:30:28;;;;;;;23.10;14.50;;;;;;;16.01;43.43;99334.34;117436;1185;24419;-51
2022/03/31 06:32:58;;;;;;;23.20;13.50;;;;;;;16.12;43.26;99333.06;117449;1185;22993;-50
2022/03/31 06:35:27;;;;;;;21.00;13.60;;;;;;;16.22;43.16;99322.30;117338;1185;21973;-60
2022/03/31 06:37:57;;;;;;;24.30;13.00;;;;;;;16.37;43.30;99314.44;117367;1180;21853;-51
2022/03/31 06:40:27;;;;;;;20.60;13.40;;;;;;;16.52;43.17;99309.91;117403;1185;21845;-50
2022/03/31 06:42:56;;;;;;;23.00;13.30;;;;;;;16.67;43.23;99309.98;117336;1189;21966;-51
2022/03/31 06:45:25;;;;;;;23.70;13.80;;;;;;;16.83;43.07;99321.15;117385;1185;22804;-51
2022/03/31 06:47:56;;;;;;;23.90;13.20;;;;;;;16.98;43.11;99327.66;117331;1184;22015;-51
2022/03/31 06:50:32;;;;;;;20.80;12.10;;;;;;;17.08;43.39;99331.84;117331;1182;21852;-60
2022/03/31 06:53:02;;;;;;;26.50;14.10;;;;;;;17.13;43.04;99331.80;117318;1186;21852;-50
2022/03/31 06:55:51;;;;;;;22.00;13.20;;;;;;;17.22;43.47;99328.79;117357;1186;21853;-60
2022/03/31 06:58:25;;;;;;;26.20;14.10;;;;;;;17.33;43.30;99324.81;117236;1186;23585;-59
2022/03/31 07:00:53;;;;;;;29.10;13.40;;;;;;;17.44;43.36;99315.98;117322;1185;22813;-60
2022/03/31 07:03:24;;;;;;;27.50;13.30;;;;;;;17.59;43.14;99320.67;117387;1186;21905;-58
2022/03/31 07:05:54;;;;;;;20.50;12.00;;;;;;;17.74;42.97;99325.43;117421;1184;23570;-50
2022/03/31 07:08:24;;;;;;;22.80;12.00;;;;;;;17.91;43.01;99329.23;117396;1184;22636;-51
2022/03/31 07:10:53;;;;;;;22.10;11.80;;;;;;;18.12;43.07;99328.38;117392;1185;21912;-52
2022/03/31 07:13:22;;;;;;;19.90;12.30;;;;;;;18.28;42.95;99322.66;117369;1185;21858;-51
2022/03/31 07:15:53;;;;;;;21.20;12.00;;;;;;;18.47;43.05;99326.65;117270;1185;21840;-52
2022/03/31 07:18:22;;;;;;;22.90;12.00;;;;;;;18.60;42.75;99322.77;117307;1185;23282;-59
2022/03/31 07:20:50;;;;;;;21.40;11.10;;;;;;;18.67;42.55;99327.88;118296;1185;21852;-53
2022/03/31 07:23:37;;;;;;;20.00;10.90;;;;;;;18.80;42.58;99326.91;117315;1185;22826;-59
2022/03/31 07:26:06;;;;;;;20.40;11.00;;;;;;;18.94;42.59;99321.21;117375;1185;23547;-50
2022/03/31 07:28:35;;;;;;;21.00;11.70;;;;;;;19.10;42.47;99323.61;117480;1185;23551;-59
2022/03/31 07:31:03;;;;;;;24.70;11.60;;;;;;;19.20;42.37;99327.23;117424;1183;22639;-50
2022/03/31 07:33:32;;;;;;;18.90;10.30;;;;;;;19.24;42.19;99322.33;117315;1181;23297;-60
2022/03/31 07:36:01;;;;;;;20.10;11.80;;;;;;;19.31;42.25;99322.39;117452;1185;23614;-59
2022/03/31 07:38:30;;;;;;;19.90;12.10;;;;;;;19.43;42.13;99328.23;117398;1185;24171;-59
2022/03/31 07:40:58;;;;;;;16.90;10.60;;;;;;;19.54;42.05;99327.51;117297;1185;23486;-52
2022/03/31 07:43:29;;;;;;;16.20;9.90;;;;;;;19.64;42.01;99321.71;117314;1185;24200;-63
2022/03/31 07:45:57;;;;;;;20.90;10.90;;;;;;;19.72;41.94;99318.31;117322;1185;21948;-51
2022/03/31 07:48:26;;;;;;;24.00;12.40;;;;;;;19.74;41.71;99312.31;117323;1183;21853;-51
2022/03/31 07:50:56;;;;;;;19.90;11.40;;;;;;;19.69;41.73;99304.97;117412;1185;21842;-55
2022/03/31 07:53:26;;;;;;;23.50;11.60;;;;;;;19.61;41.57;99303.21;117389;1184;21869;-60
2022/03/31 07:55:56;;;;;;;19.40;11.60;;;;;;;19.60;41.57;99308.96;117433;1184;21868;-52
2022/03/31 07:58:24;;;;;;;22.00;11.10;;;;;;;19.62;41.55;99307.42;117309;1186;22925;-52
2022/03/31 08:00:53;;;;;;;27.20;11.30;;;;;;;19.62;41.37;99310.44;117402;1185;21900;-51
2022/03/31 08:03:25;;;;;;;19.70;10.40;;;;;;;19.61;41.27;99310.11;117393;1185;23551;-60
2022/03/31 08:05:55;;;;;;;19.10;10.40;;;;;;;19.59;41.21;99323.94;117344;1183;23563;-51
2022/03/31 08:08:24;;;;;;;23.50;11.00;;;;;;;19.55;41.14;99335.45;117397;1185;23467;-59
2022/03/31 08:10:52;;;;;;;20.10;9.70;;;;;;;19.51;41.34;99346.91;117378;1185;21853;-51
2022/03/31 08:13:27;;;;;;;21.40;10.50;;;;;;;19.58;41.23;99345.40;117424;1185;22639;-52
2022/03/31 08:15:57;;;;;;;19.10;9.40;;;;;;;19.66;41.26;99350.90;117397;1184;23523;-52
2022/03/31 08:18:29;;;;;;;21.90;9.30;;;;;;;19.70;41.15;99355.95;117304;1182;23454;-60
2022/03/31 08:20:58;;;;;;;20.10;8.90;;;;;;;19.72;41.17;99371.30;117407;1184;23002;-60
2022/03/31 08:23:36;;;;;;;25.50;9.60;;;;;;;19.66;41.00;99376.91;117375;1185;23448;-52
2022/03/31 08:26:05;;;;;;;17.30;9.10;;;;;;;19.58;40.96;99366.41;117411;1184;22670;-51
2022/03/31 08:28:36;;;;;;;21.70;9.20;;;;;;;19.56;41.08;99364.93;117380;1185;24165;-54
2022/03/31 08:31:06;;;;;;;21.10;9.60;;;;;;;19.58;41.18;99362.32;117327;1185;24260;-51
2022/03/31 08:33:35;;;;;;;18.10;8.90;;;;;;;19.68;41.27;99362.50;117395;1185;22763;-52
2022/03/31 08:36:04;;;;;;;25.00;10.00;;;;;;;19.77;41.12;99363.52;117392;1185;24162;-51
2022/03/31 08:38:33;;;;;;;18.40;9.30;;;;;;;19.85;41.14;99360.52;117321;1185;22041;-52
2022/03/31 08:41:02;;;;;;;19.80;9.00;;;;;;;19.93;41.07;99361.06;117380;1185;23448;-56
2022/03/31 08:43:30;;;;;;;23.90;9.40;;;;;;;19.98;40.99;99357.52;117372;1185;21852;-52
2022/03/31 08:46:06;;;;;;;17.50;9.00;;;;;;;19.97;40.87;99352.77;117446;1185;24145;-52
2022/03/31 08:48:34;;;;;;;23.10;9.20;;;;;;;19.99;40.84;99347.50;117422;1184;22646;-51
2022/03/31 08:51:04;;;;;;;24.90;9.10;;;;;;;20.06;40.92;99352.39;117406;1184;23550;-61
2022/03/31 08:53:33;;;;;;;19.90;8.70;;;;;;;20.16;40.96;99349.33;117417;1185;24071;-52
2022/03/31 08:56:03;;;;;;;19.60;8.20;;;;;;;20.25;40.85;99345.05;117424;1184;23474;-59
2022/03/31 08:58:33;;;;;;;19.80;8.10;;;;;;;20.34;40.82;99343.48;117423;1185;21847;-51
2022/03/31 09:01:02;;;;;;;19.10;8.20;;;;;;;20.42;40.67;99341.00;117388;1184;21909;-58
2022/03/31 09:03:38;;;;;;;19.30;8.70;;;;;;;20.45;40.57;99335.29;117374;1185;22917;-58
2022/03/31 09:06:08;;;;;;;14.50;7.70;;;;;;;20.52;40.71;99329.27;117340;1185;22988;-60
2022/03/31 09:08:36;;;;;;;20.80;7.50;;;;;;;20.67;40.77;99324.46;117269;1185;24169;-52
2022/03/31 09:11:05;;;;;;;19.50;7.80;;;;;;;20.83;40.72;99320.14;117462;1184;24156;-59
2022/03/31 09:13:36;;;;;;;16.20;8.30;;;;;;;20.95;40.55;99318.79;117368;1184;23467;-59
2022/03/31 09:16:06;;;;;;;17.20;7.00;;;;;;;21.07;40.51;99322.38;117408;1184;24226;-60
2022/03/31 09:18:37;;;;;;;19.40;7.70;;;;;;;21.18;40.53;99320.84;117425;1184;22941;-58
2022/03/31 09:21:09;;;;;;;20.70;7.70;;;;;;;21.33;40.54;99325.60;117377;1182;21849;-51
2022/03/31 09:23:42;;;;;;;18.20;7.00;;;;;;;21.45;40.36;99324.23;117413;1185;22070;-51
2022/03/31 09:26:13;;;;;;;17.00;7.60;;;;;;;21.53;40.20;99318.98;117359;1184;23553;-51
2022/03/31 09:28:46;;;;;;;23.50;8.30;;;;;;;21.60;40.01;99318.46;117787;1183;22329;-59
2022/03/31 09:31:22;;;;;;;24.00;8.30;;;;;;;21.57;39.72;99311.89;119538;1184;22075;-60
2022/03/31 09:33:55;;;;;;;14.50;7.70;;;;;;;21.47;39.57;99311.57;118124;1185;22059;-59
2022/03/31 09:36:24;;;;;;;16.10;8.10;;;;;;;21.39;39.56;99307.38;117433;1185;22098;-59
2022/03/31 09:38:58;;;;;;;18.00;8.40;;;;;;;21.31;39.52;99299.20;117220;1185;21899;-52
2022/03/31 09:46:40;;;;;;;18.60;8.90;;;;;;;21.34;39.53;99301.13;117349;1175;23881;-59
2022/03/31 09:49:11;;;;;;;21.90;8.20;;;;;;;21.35;39.33;99301.03;117315;1184;22998;-60
2022/03/31 09:51:40;;;;;;;19.30;9.70;;;;;;;21.31;39.27;99301.35;117290;1185;21860;-60
2022/03/31 09:54:10;;;;;;;17.40;8.90;;;;;;;21.30;39.24;99293.41;119178;1184;21849;-60
2022/03/31 09:56:40;;;;;;;20.40;8.60;;;;;;;21.33;39.28;99291.92;117301;1182;21843;-58
2022/03/31 09:59:10;;;;;;;23.10;9.80;;;;;;;21.36;39.20;99287.27;117456;1185;23641;-60
2022/03/31 10:01:48;;;;;;;18.50;8.90;;;;;;;21.54;39.37;99284.14;117385;1184;23252;-59
2022/03/31 10:04:18;;;;;;;23.70;9.30;;;;;;;21.85;39.41;99278.04;117385;1184;23592;-60
2022/03/31 10:06:50;;;;;;;16.30;7.80;;;;;;;22.15;39.28;99274.70;117218;1184;21866;-52
2022/03/31 10:09:18;;;;;;;16.80;7.70;;;;;;;22.46;39.04;99275.63;117332;1184;22952;-59
2022/03/31 10:11:49;;;;;;;16.70;8.40;;;;;;;22.73;38.75;99272.08;117477;1182;21893;-51
2022/03/31 10:14:52;;;;;;;15.00;7.30;;;;;;;22.93;38.84;99273.58;117380;1185;21862;-59
2022/03/31 10:17:28;;;;;;;19.10;8.40;;;;;;;23.06;38.64;99275.55;116971;1185;23550;-59
2022/03/31 10:20:10;;;;;;;22.30;7.70;;;;;;;23.04;38.56;99268.52;117374;1184;22934;-57
2022/03/31 10:25:37;;;;;;;23.00;7.90;;;;;;;23.14;38.39;99265.23;117440;1184;23800;-59
2022/03/31 10:28:09;;;;;;;16.90;7.70;;;;;;;23.11;38.22;99263.33;117360;1185;23556;-59
2022/03/31 10:30:51;;;;;;;20.20;8.00;;;;;;;23.00;37.71;99256.63;117469;1184;23592;-52
2022/03/31 10:33:31;;;;;;;15.70;8.20;;;;;;;22.85;37.56;99255.09;117363;1185;21855;-59
2022/03/31 10:36:09;;;;;;;18.10;8.70;;;;;;;22.73;37.67;99254.58;117491;1183;22944;-59
2022/03/31 10:38:58;;;;;;;17.80;9.00;;;;;;;22.64;37.63;99247.84;117492;1185;22820;-59
2022/03/31 10:41:30;;;;;;;17.40;8.30;;;;;;;22.56;37.65;99250.95;117461;1184;21838;-54
2022/03/31 10:44:04;;;;;;;20.20;8.60;;;;;;;22.50;37.46;99248.40;117464;1183;21849;-58
2022/03/31 10:46:33;;;;;;;27.40;8.30;;;;;;;22.43;37.48;99248.23;117413;1185;21862;-60
2022/03/31 10:49:02;;;;;;;18.00;7.70;;;;;;;22.33;37.24;99251.63;117319;1185;22941;-52
2022/03/31 10:51:38;;;;;;;15.00;7.20;;;;;;;22.23;37.35;99249.23;117419;1183;23545;-53
2022/03/31 10:54:11;;;;;;;19.00;8.00;;;;;;;22.31;37.62;99244.86;117415;1185;22616;-52
2022/03/31 10:56:40;;;;;;;18.00;7.00;;;;;;;22.45;37.68;99247.68;117391;1185;21850;-61
2022/03/31 10:59:09;;;;;;;17.30;7.50;;;;;;;22.61;37.65;99247.33;117623;1185;24735;-60
2022/03/31 11:01:39;;;;;;;24.50;8.40;;;;;;;22.77;37.74;99247.13;117480;1184;24263;-60
2022/03/31 11:04:10;;;;;;;17.80;7.40;;;;;;;22.90;37.60;99245.69;117553;1184;22636;-59
2022/03/31 11:06:46;;;;;;;19.10;7.40;;;;;;;23.00;37.57;99241.88;117512;1184;21846;-53
2022/03/31 11:09:32;;;;;;;19.90;7.30;;;;;;;23.12;37.60;99232.10;117439;1184;23573;-60
2022/03/31 11:12:01;;;;;;;22.40;8.50;;;;;;;23.31;37.58;99225.54;117360;1185;22924;-60
2022/03/31 11:14:29;;;;;;;18.10;7.10;;;;;;;23.46;37.45;99220.73;117555;1185;23573;-60
2022/03/31 11:16:58;;;;;;;15.90;7.60;;;;;;;23.54;37.29;99211.43;117493;1184;21852;-60
2022/03/31 11:19:36;;;;;;;13.00;7.00;;;;;;;23.55;37.36;99207.58;117518;1185;21852;-60
2022/03/31 11:22:06;;;;;;;16.80;7.50;;;;;;;23.55;37.48;99209.52;117375;1184;21851;-60
2022/03/31 11:24:36;;;;;;;17.10;7.60;;;;;;;23.56;37.43;99205.38;117423;1185;22316;-60
2022/03/31 11:27:05;;;;;;;16.40;7.40;;;;;;;23.54;37.17;99207.12;117418;1184;21890;-61
2022/03/31 11:29:33;;;;;;;21.60;8.60;;;;;;;23.48;37.14;99206.02;117393;1184;23621;-58
2022/03/31 11:32:03;;;;;;;18.90;8.20;;;;;;;23.41;37.20;99203.24;117374;1184;22807;-59
2022/03/31 11:34:31;;;;;;;15.60;8.10;;;;;;;23.33;37.08;99203.92;117405;1185;21861;-60
2022/03/31 11:37:01;;;;;;;19.00;8.20;;;;;;;23.25;36.98;99204.77;117375;1184;21860;-52